Time;durP1;ratioP1;P1;durP2;ratioP2;P2;SDS_P1;SDS_P2;PMS_P1;PMS_P2;Temp;Humidity;BMP_temperature;BMP_pressure;BME280_temperature;BME280_humidity;BME280_pressure;Samples;Min_cycle;Max_cycle;Signal;HPM_P1;HPM_P2
2022/01/23 00:00:51;;;;;;;;;;;;;;;-0.41;49.54;99595.31;4490759;31;19972;-86
2022/01/23 00:03:18;;;;;;;;;;;;;;;-0.79;50.68;99596.06;4489946;31;142086;-88
2022/01/23 00:05:47;;;;;;;;;;;;;;;-0.40;49.57;99594.47;4502603;31;19979;-85
2022/01/23 00:08:15;;;;;;;;;;;;;;;-0.36;49.54;99591.03;4494319;31;20745;-85
2022/01/23 00:10:41;;;;;;;;;;;;;;;-0.38;49.49;99589.31;4479848;32;20345;-84
2022/01/23 00:13:10;;;;;;;;;;;;;;;-0.38;49.46;99594.47;4485646;31;19988;-85
2022/01/23 00:18:20;;;;;;;;;;;;;;;-0.67;49.87;99609.03;4493924;31;19998;-93
2022/01/23 00:20:46;;;;;;;;;;;;;;;-1.06;50.96;99604.56;4498915;31;19976;-87
2022/01/23 00:23:35;;;;;;;;;;;;;;;-0.80;50.46;99600.34;4489614;31;19996;-87
2022/01/23 00:31:29;;;;;;;;;;;;;;;-0.89;50.54;99617.56;4486912;32;19983;-87
2022/01/23 00:33:55;;;;;;;;;;;;;;;-0.75;50.22;99618.50;4493383;31;19968;-87
2022/01/23 00:36:23;;;;;;;;;;;;;;;-0.56;49.63;99618.56;4493490;31;20255;-87
2022/01/23 00:38:48;;;;;;;;;;;;;;;-0.57;49.59;99619.44;4486094;32;20376;-88
2022/01/23 00:41:14;;;;;;;;;;;;;;;-0.37;49.12;99620.34;4487246;31;19979;-88
2022/01/23 00:43:42;;;;;;;;;;;;;;;-0.22;48.77;99611.75;4487487;31;20016;-89
2022/01/23 00:49:13;;;;;;;;;;;;;;;-0.24;48.85;99614.34;4486256;32;19982;-89
2022/01/23 00:51:35;;;;;;;;;;;;;;;-0.52;49.29;99618.59;4487171;31;19990;-89
2022/01/23 00:54:02;;;;;;;;;;;;;;;-0.30;48.71;99623.84;4487094;31;19980;-88
2022/01/23 00:56:27;;;;;;;;;;;;;;;-0.47;49.12;99623.78;4486137;32;19996;-88
2022/01/23 00:58:53;;;;;;;;;;;;;;;-0.45;48.93;99616.88;4486009;31;20315;-89
2022/01/23 01:01:18;;;;;;;;;;;;;;;-0.57;49.35;99617.69;4485756;32;20265;-89
2022/01/23 01:03:44;;;;;;;;;;;;;;;-0.48;49.00;99619.47;4485897;32;19994;-88
2022/01/23 01:06:09;;;;;;;;;;;;;;;-0.42;49.00;99619.47;4487119;31;19994;-86
2022/01/23 01:08:34;;;;;;;;;;;;;;;-0.35;48.79;99613.44;4485513;32;19992;-85
2022/01/23 01:13:30;;;;;;;;;;;;;;;-0.51;49.36;99603.91;4502542;31;20359;-88
2022/01/23 01:16:12;;;;;;;;;;;;;;;-0.70;49.88;99609.00;4489298;31;20012;-88
2022/01/23 01:32:29;;;;;;;;;;;;;;;-0.78;49.97;99602.94;4490327;31;19978;-88
2022/01/23 01:35:04;;;;;;;;;;;;;;;-0.67;49.85;99603.88;4489543;31;20028;-90
2022/01/23 01:37:30;;;;;;;;;;;;;;;-0.66;49.76;99597.84;4502543;31;19975;-90
2022/01/23 01:39:55;;;;;;;;;;;;;;;-0.40;49.22;99587.56;4474938;31;19989;-89
2022/01/23 01:42:20;;;;;;;;;;;;;;;-0.38;48.97;99589.31;4465459;32;20385;-88
2022/01/23 01:44:46;;;;;;;;;;;;;;;-0.68;49.44;99594.34;4472288;32;20027;-90
2022/01/23 01:47:11;;;;;;;;;;;;;;;-0.80;50.05;99597.75;4472238;32;19991;-90
2022/01/23 01:49:36;;;;;;;;;;;;;;;-0.94;50.44;99599.44;4472241;32;19975;-92
2022/01/23 01:52:02;;;;;;;;;;;;;;;-0.62;49.75;99602.16;4486189;32;19980;-90
2022/01/23 01:54:30;;;;;;;;;;;;;;;-0.57;49.76;99599.59;4472017;32;20019;-93
2022/01/23 01:57:10;;;;;;;;;;;;;;;-0.63;49.74;99605.59;4472521;32;20002;-91
2022/01/23 02:10:05;;;;;;;;;;;;;;;-0.65;49.83;99606.47;4474099;32;19990;-92
2022/01/23 02:18:27;;;;;;;;;;;;;;;-0.71;49.58;99588.34;4486220;32;20348;-92
2022/01/23 02:50:55;;;;;;;;;;;;;;;-0.99;50.54;99583.00;4488279;32;19990;-91
2022/01/23 02:55:56;;;;;;;;;;;;;;;-1.05;50.76;99591.59;4475046;32;19998;-90
2022/01/23 02:58:24;;;;;;;;;;;;;;;-1.06;51.15;99596.78;4488008;32;19980;-90
2022/01/23 03:01:06;;;;;;;;;;;;;;;-0.86;50.56;99586.53;4473758;32;20399;-91
2022/01/23 03:03:36;;;;;;;;;;;;;;;-0.81;50.56;99587.44;4475810;32;20027;-91
2022/01/23 03:14:02;;;;;;;;;;;;;;;-0.98;50.93;99586.50;4474916;32;20460;-91
2022/01/23 03:32:44;;;;;;;;;;;;;;;-0.42;49.59;99596.19;4474868;32;20034;-90
2022/01/23 03:35:09;;;;;;;;;;;;;;;-0.39;49.73;99596.19;4487802;32;19990;-91
2022/01/23 03:37:35;;;;;;;;;;;;;;;-0.46;49.75;99592.72;4473512;32;19964;-91
2022/01/23 03:40:00;;;;;;;;;;;;;;;-0.40;49.84;99586.69;4487799;32;19983;-91
2022/01/23 03:42:27;;;;;;;;;;;;;;;-0.86;50.73;99584.81;4487315;32;19994;-90
2022/01/23 03:45:10;;;;;;;;;;;;;;;-0.37;50.02;99578.91;4473857;32;20033;-90
2022/01/23 03:47:41;;;;;;;;;;;;;;;-0.58;50.47;99581.47;4487927;32;20030;-91
2022/01/23 03:50:07;;;;;;;;;;;;;;;-0.25;49.66;99571.19;4474213;32;20004;-89
2022/01/23 03:52:32;;;;;;;;;;;;;;;-0.89;50.79;99564.13;4487619;32;19979;-89
2022/01/23 03:54:57;;;;;;;;;;;;;;;-0.91;51.14;99570.97;4473489;32;20258;-90
2022/01/23 03:57:23;;;;;;;;;;;;;;;-0.76;50.96;99570.19;4473350;32;19982;-90
2022/01/23 03:59:48;;;;;;;;;;;;;;;-0.64;50.87;99565.06;4487638;32;20330;-89
2022/01/23 04:02:14;;;;;;;;;;;;;;;-0.62;50.47;99565.06;4487827;32;20118;-89
2022/01/23 04:04:40;;;;;;;;;;;;;;;-0.49;50.21;99566.81;4487647;32;20410;-89
2022/01/23 04:07:20;;;;;;;;;;;;;;;-0.63;50.52;99574.53;4473219;32;19987;-91
2022/01/23 04:09:46;;;;;;;;;;;;;;;-0.53;50.31;99569.41;4487514;32;19999;-89
2022/01/23 04:12:24;;;;;;;;;;;;;;;-0.53;50.49;99569.41;4487634;32;19994;-90
2022/01/23 04:14:56;;;;;;;;;;;;;;;-0.18;49.50;99571.22;4474832;32;20471;-89
2022/01/23 05:00:19;;;;;;;;;;;;;;;-0.06;48.93;99597.09;4487410;32;20032;-93
2022/01/23 05:05:32;;;;;;;;;;;;;;;-0.18;48.80;99573.78;4487313;32;20027;-93
2022/01/23 05:08:00;;;;;;;;;;;;;;;-0.37;49.52;99580.66;4487173;32;19989;-93
2022/01/23 05:10:25;;;;;;;;;;;;;;;-0.22;49.12;99591.03;4473205;32;20287;-92
2022/01/23 05:12:51;;;;;;;;;;;;;;;-0.18;49.01;99594.50;4472838;32;20002;-93
2022/01/23 05:15:16;;;;;;;;;;;;;;;-0.17;49.01;99597.09;4487174;32;20016;-92
2022/01/23 05:17:41;;;;;;;;;;;;;;;-0.15;48.80;99594.53;4472883;32;19989;-94
2022/01/23 05:20:07;;;;;;;;;;;;;;;-0.25;49.00;99591.91;4486970;32;20012;-93
2022/01/23 05:22:44;;;;;;;;;;;;;;;-0.12;48.60;99597.09;4487109;32;20031;-92
2022/01/23 05:25:19;;;;;;;;;;;;;;;0.13;48.18;99606.63;4487016;32;20039;-93
2022/01/23 05:27:45;;;;;;;;;;;;;;;0.01;48.27;99610.94;4487052;32;19987;-92
2022/01/23 05:30:10;;;;;;;;;;;;;;;0.22;47.77;99620.47;4486810;32;19992;-91
2022/01/23 05:32:40;;;;;;;;;;;;;;;0.45;47.07;99616.16;4486839;32;20310;-94
2022/01/23 05:35:06;;;;;;;;;;;;;;;0.65;46.55;99626.50;4486881;32;20338;-93
2022/01/23 05:37:32;;;;;;;;;;;;;;;0.47;46.63;99619.59;4486845;32;20038;-93
2022/01/23 05:39:58;;;;;;;;;;;;;;;0.59;46.62;99619.59;4486970;32;19980;-93
2022/01/23 05:42:23;;;;;;;;;;;;;;;0.89;45.91;99624.72;4486857;32;20033;-94
2022/01/23 05:44:48;;;;;;;;;;;;;;;0.92;45.56;99622.13;4472455;32;20331;-93
2022/01/23 05:47:14;;;;;;;;;;;;;;;0.82;45.79;99636.84;4486610;32;19975;-93
2022/01/23 05:49:40;;;;;;;;;;;;;;;0.75;45.80;99641.22;4486662;32;20016;-93
2022/01/23 05:52:06;;;;;;;;;;;;;;;0.46;46.43;99641.19;4472414;32;19988;-93
2022/01/23 05:54:31;;;;;;;;;;;;;;;0.78;45.65;99643.78;4486643;32;20286;-93
2022/01/23 05:56:56;;;;;;;;;;;;;;;0.49;46.01;99650.72;4486366;32;19980;-92
2022/01/23 05:59:22;;;;;;;;;;;;;;;0.75;45.78;99653.28;4472154;32;19988;-93
2022/01/23 06:01:51;;;;;;;;;;;;;;;0.86;45.52;99654.12;4486436;32;20291;-92
2022/01/23 06:04:17;;;;;;;;;;;;;;;0.78;45.28;99656.75;4487124;32;19990;-91
2022/01/23 06:06:42;;;;;;;;;;;;;;;0.84;45.00;99647.25;4488480;32;19976;-91
2022/01/23 06:09:08;;;;;;;;;;;;;;;0.85;45.12;99654.12;4488252;32;19987;-91
2022/01/23 06:11:33;;;;;;;;;;;;;;;0.78;45.16;99655.88;4474328;32;20026;-91
2022/01/23 06:13:58;;;;;;;;;;;;;;;0.89;45.02;99655.84;4488396;32;19971;-90
2022/01/23 06:16:24;;;;;;;;;;;;;;;0.88;45.12;99654.16;4474265;32;19971;-90
2022/01/23 06:18:49;;;;;;;;;;;;;;;0.87;44.93;99658.47;4474097;32;19989;-91
2022/01/23 06:21:19;;;;;;;;;;;;;;;0.84;45.27;99665.41;4488337;32;19972;-91
2022/01/23 06:23:44;;;;;;;;;;;;;;;0.93;44.61;99670.59;4488350;32;20591;-91
2022/01/23 06:26:10;;;;;;;;;;;;;;;1.06;44.62;99677.44;4488062;32;20021;-91
2022/01/23 06:29:01;;;;;;;;;;;;;;;0.90;44.86;99684.41;4474061;32;20322;-91
2022/01/23 06:31:27;;;;;;;;;;;;;;;1.13;44.63;99693.88;4484943;32;20476;-91
2022/01/23 06:33:52;;;;;;;;;;;;;;;1.25;44.07;99693.00;4474106;32;19998;-92
2022/01/23 06:36:20;;;;;;;;;;;;;;;1.21;44.25;99693.88;4474076;32;20253;-92
2022/01/23 06:38:46;;;;;;;;;;;;;;;1.27;44.20;99699.03;4474056;32;19982;-93
2022/01/23 06:41:11;;;;;;;;;;;;;;;1.25;44.34;99695.59;4488270;32;20278;-92
2022/01/23 06:43:36;;;;;;;;;;;;;;;1.46;43.86;99699.88;4488201;32;19988;-93
2022/01/23 06:46:02;;;;;;;;;;;;;;;1.56;43.56;99702.44;4474576;32;19968;-92
2022/01/23 06:48:27;;;;;;;;;;;;;;;1.70;43.21;99699.78;4488129;32;19980;-93
2022/01/23 06:50:52;;;;;;;;;;;;;;;1.35;43.59;99703.37;4488247;32;20012;-93
2022/01/23 06:53:18;;;;;;;;;;;;;;;1.53;43.34;99704.19;4473945;32;20000;-92
2022/01/23 06:55:43;;;;;;;;;;;;;;;1.62;43.38;99704.13;4488075;32;19993;-93
2022/01/23 06:58:08;;;;;;;;;;;;;;;1.54;43.39;99701.56;4486854;32;20256;-93
2022/01/23 07:00:34;;;;;;;;;;;;;;;1.80;42.96;99694.53;4473739;32;19984;-92
2022/01/23 07:02:59;;;;;;;;;;;;;;;1.85;42.93;99700.59;4488057;32;20008;-94
2022/01/23 07:05:25;;;;;;;;;;;;;;;1.84;42.67;99694.53;4487951;32;19972;-93
2022/01/23 07:07:50;;;;;;;;;;;;;;;1.68;42.92;99696.34;4488051;32;19968;-93
2022/01/23 07:10:16;;;;;;;;;;;;;;;1.63;43.13;99692.88;4487965;31;19979;-93
2022/01/23 07:12:42;;;;;;;;;;;;;;;1.66;43.26;99699.78;4488117;32;19995;-94
2022/01/23 07:15:08;;;;;;;;;;;;;;;1.69;43.26;99694.59;4487815;32;19971;-93
2022/01/23 07:17:37;;;;;;;;;;;;;;;1.85;43.00;99695.38;4487513;32;20008;-93
2022/01/23 07:20:03;;;;;;;;;;;;;;;1.72;43.16;99698.06;4473826;32;20369;-93
2022/01/23 07:22:28;;;;;;;;;;;;;;;1.91;43.06;99696.25;4488077;32;19995;-94
2022/01/23 07:24:55;;;;;;;;;;;;;;;1.94;43.04;99703.16;4488053;32;20348;-92
2022/01/23 07:27:22;;;;;;;;;;;;;;;1.95;43.16;99703.16;4487919;32;19987;-92
2022/01/23 07:29:48;;;;;;;;;;;;;;;1.82;43.15;99698.03;4488043;32;20029;-93
2022/01/23 07:32:13;;;;;;;;;;;;;;;1.64;43.45;99702.41;4487944;32;19997;-92
2022/01/23 07:34:38;;;;;;;;;;;;;;;1.62;43.46;99698.94;4473645;32;20274;-92
2022/01/23 07:37:04;;;;;;;;;;;;;;;2.06;42.68;99694.41;4487934;32;20295;-92
2022/01/23 07:39:29;;;;;;;;;;;;;;;2.12;42.51;99697.84;4487927;32;19983;-92
2022/01/23 07:41:54;;;;;;;;;;;;;;;2.10;42.61;99704.78;4487848;32;19979;-88
2022/01/23 07:44:19;;;;;;;;;;;;;;;2.06;42.75;99707.41;4487879;32;20060;-90
2022/01/23 07:46:45;;;;;;;;;;;;;;;1.97;43.00;99703.16;4473443;32;19968;-93
2022/01/23 07:49:10;;;;;;;;;;;;;;;2.03;42.90;99705.69;4487898;32;20027;-87
2022/01/23 07:51:35;;;;;;;;;;;;;;;2.10;42.54;99704.78;4488392;32;19994;-92
2022/01/23 07:54:01;;;;;;;;;;;;;;;2.10;42.63;99704.78;4487764;32;19987;-94
2022/01/23 07:56:26;;;;;;;;;;;;;;;2.24;42.57;99702.13;4488334;32;19986;-94
2022/01/23 07:58:51;;;;;;;;;;;;;;;2.27;42.83;99711.63;4487683;32;19979;-92
2022/01/23 08:01:17;;;;;;;;;;;;;;;2.32;42.38;99712.47;4473448;32;19994;-91
2022/01/23 08:03:42;;;;;;;;;;;;;;;2.43;42.15;99715.84;4473492;32;19996;-92
2022/01/23 08:06:11;;;;;;;;;;;;;;;2.54;41.96;99713.19;4487517;32;20363;-91
2022/01/23 08:08:38;;;;;;;;;;;;;;;1.99;43.10;99719.59;4473649;32;20357;-92
2022/01/23 08:11:04;;;;;;;;;;;;;;;2.41;42.48;99719.34;4473308;32;20385;-93
2022/01/23 08:13:30;;;;;;;;;;;;;;;2.20;43.12;99717.72;4473217;32;19963;-92
2022/01/23 08:15:55;;;;;;;;;;;;;;;2.37;43.19;99731.50;4487703;32;19968;-91
2022/01/23 08:18:21;;;;;;;;;;;;;;;2.53;42.19;99732.25;4487547;32;20012;-91
2022/01/23 08:20:47;;;;;;;;;;;;;;;2.48;41.99;99734.91;4473386;32;20049;-90
2022/01/23 08:23:13;;;;;;;;;;;;;;;2.00;42.69;99743.84;4487587;32;20266;-91
2022/01/23 08:25:41;;;;;;;;;;;;;;;2.29;42.41;99749.75;4473323;32;19987;-93
2022/01/23 08:28:09;;;;;;;;;;;;;;;2.27;42.58;99741.09;4473498;32;20375;-91
2022/01/23 08:30:38;;;;;;;;;;;;;;;2.04;42.74;99736.00;4473504;32;20002;-91
2022/01/23 08:33:03;;;;;;;;;;;;;;;2.23;42.11;99743.72;4473179;32;20030;-93
2022/01/23 08:35:29;;;;;;;;;;;;;;;2.49;41.79;99738.34;4487272;32;20082;-92
2022/01/23 08:37:54;;;;;;;;;;;;;;;2.55;41.90;99748.75;4487379;32;20010;-92
2022/01/23 08:40:35;;;;;;;;;;;;;;;2.47;42.21;99759.19;4487537;32;20510;-92
2022/01/23 08:43:00;;;;;;;;;;;;;;;2.35;42.50;99748.84;4475217;32;20011;-94
2022/01/23 08:45:26;;;;;;;;;;;;;;;2.58;42.04;99743.50;4472911;32;20301;-92
2022/01/23 08:47:51;;;;;;;;;;;;;;;2.67;41.71;99743.44;4473018;32;19999;-93
2022/01/23 08:50:16;;;;;;;;;;;;;;;2.72;41.81;99733.00;4487376;32;19988;-92
2022/01/23 08:52:42;;;;;;;;;;;;;;;2.94;41.48;99728.50;4487280;32;19984;-93
2022/01/23 08:55:07;;;;;;;;;;;;;;;2.81;41.21;99734.69;4487230;32;20266;-93
2022/01/23 08:57:32;;;;;;;;;;;;;;;2.78;41.53;99740.75;4487205;32;19979;-93
2022/01/23 08:59:58;;;;;;;;;;;;;;;3.07;40.94;99740.53;4487199;32;19982;-93
2022/01/23 09:02:25;;;;;;;;;;;;;;;3.00;40.74;99744.06;4459952;32;19976;-93
2022/01/23 09:04:50;;;;;;;;;;;;;;;3.33;40.31;99753.28;4472846;32;19976;-93
2022/01/23 09:07:15;;;;;;;;;;;;;;;3.36;39.95;99747.19;4486960;32;19976;-94
2022/01/23 09:09:41;;;;;;;;;;;;;;;3.45;40.04;99759.25;4472672;32;19988;-94
2022/01/23 09:12:27;;;;;;;;;;;;;;;3.57;39.43;99760.88;4472841;32;19972;-94
2022/01/23 09:14:53;;;;;;;;;;;;;;;3.67;39.32;99760.78;4487118;32;19968;-94
2022/01/23 09:17:18;;;;;;;;;;;;;;;3.85;38.99;99751.03;4487090;32;19980;-94
2022/01/23 09:19:46;;;;;;;;;;;;;;;3.98;38.50;99752.59;4472822;32;20352;-94
2022/01/23 09:22:12;;;;;;;;;;;;;;;4.03;38.65;99756.00;4487082;32;20006;-96
2022/01/23 09:24:40;;;;;;;;;;;;;;;4.19;38.72;99754.09;4472613;32;19972;-94
2022/01/23 09:27:07;;;;;;;;;;;;;;;4.34;37.95;99755.59;4472720;32;19995;-92
2022/01/23 09:29:39;;;;;;;;;;;;;;;4.50;37.46;99751.03;4487111;32;19987;-94
2022/01/23 09:32:05;;;;;;;;;;;;;;;4.20;37.67;99760.16;4473338;32;19980;-91
2022/01/23 09:34:32;;;;;;;;;;;;;;;4.17;37.18;99752.34;4472584;32;19976;-92
2022/01/23 09:36:58;;;;;;;;;;;;;;;4.03;37.92;99753.38;4472454;32;20044;-93
2022/01/23 09:39:24;;;;;;;;;;;;;;;4.25;37.86;99753.09;4473099;32;19987;-93
2022/01/23 09:41:50;;;;;;;;;;;;;;;4.48;37.21;99745.84;4488620;32;20010;-94
2022/01/23 09:44:16;;;;;;;;;;;;;;;4.42;37.33;99747.66;4474527;32;19977;-92
2022/01/23 09:46:42;;;;;;;;;;;;;;;3.92;37.51;99743.13;4488691;32;19979;-94
2022/01/23 09:49:07;;;;;;;;;;;;;;;4.02;37.56;99749.06;4488594;32;20040;-92
2022/01/23 09:51:33;;;;;;;;;;;;;;;3.61;37.73;99754.75;4474323;32;20022;-93
2022/01/23 09:53:58;;;;;;;;;;;;;;;3.78;38.21;99755.44;4474086;32;19972;-92
2022/01/23 09:56:27;;;;;;;;;;;;;;;3.62;38.60;99761.72;4474138;32;20006;-90
2022/01/23 09:58:53;;;;;;;;;;;;;;;3.57;38.42;99761.72;4488451;32;19990;-89
2022/01/23 10:01:20;;;;;;;;;;;;;;;3.57;38.25;99756.53;4488454;32;19979;-93
2022/01/23 10:03:45;;;;;;;;;;;;;;;3.70;38.49;99762.47;4474381;32;19968;-91
2022/01/23 10:06:11;;;;;;;;;;;;;;;3.82;38.25;99758.88;4487356;31;19984;-95
2022/01/23 10:08:36;;;;;;;;;;;;;;;3.82;38.32;99746.69;4489630;31;19983;-93
2022/01/23 10:11:08;;;;;;;;;;;;;;;4.13;37.90;99755.03;4503743;31;19991;-92
2022/01/23 10:13:34;;;;;;;;;;;;;;;4.20;37.86;99755.78;4489719;31;19983;-93
2022/01/23 10:15:59;;;;;;;;;;;;;;;4.48;37.23;99756.28;4490512;31;19984;-92
2022/01/23 10:18:24;;;;;;;;;;;;;;;4.03;37.61;99758.59;4492408;31;19979;-95
2022/01/23 10:20:50;;;;;;;;;;;;;;;4.23;37.61;99760.97;4507125;31;20002;-92
2022/01/23 10:23:15;;;;;;;;;;;;;;;4.08;37.93;99756.81;4490769;31;20255;-91
2022/01/23 10:25:41;;;;;;;;;;;;;;;4.34;37.20;99748.63;4505550;31;19994;-88
2022/01/23 10:28:16;;;;;;;;;;;;;;;4.14;37.80;99748.06;4503953;31;20036;-91
2022/01/23 10:30:45;;;;;;;;;;;;;;;4.33;37.41;99752.13;4503709;31;20417;-88
2022/01/23 10:33:32;;;;;;;;;;;;;;;4.39;37.12;99735.53;4489617;31;19971;-89
2022/01/23 10:36:08;;;;;;;;;;;;;;;4.25;37.64;99745.28;4489819;31;19991;-90
2022/01/23 10:38:50;;;;;;;;;;;;;;;4.43;37.62;99734.59;4504238;31;20002;-87
2022/01/23 10:49:52;;;;;;;;;;;;;;;4.99;37.34;99733.75;4424208;32;19997;-87
2022/01/23 10:52:28;;;;;;;;;;;;;;;5.17;37.34;99738.66;4409071;32;20055;-93
2022/01/23 10:54:53;;;;;;;;;;;;;;;5.14;36.90;99738.72;4421071;32;20037;-90
2022/01/23 10:57:18;;;;;;;;;;;;;;;4.97;37.11;99746.00;4418814;32;20016;-88
2022/01/23 10:59:47;;;;;;;;;;;;;;;4.99;37.05;99733.75;4405853;32;20035;-88
2022/01/23 11:02:14;;;;;;;;;;;;;;;5.06;36.62;99732.75;4419888;32;19993;-91
2022/01/23 11:04:58;;;;;;;;;;;;;;;5.27;36.49;99742.84;4416778;32;19977;-88
2022/01/23 11:07:24;;;;;;;;;;;;;;;5.15;37.20;99736.97;4432303;32;19992;-89
2022/01/23 11:09:55;;;;;;;;;;;;;;;5.05;36.91;99737.13;4426384;32;20018;-88
2022/01/23 11:17:21;;;;;;;;;;;;;;;4.69;37.63;99741.19;4425337;32;20443;-87
2022/01/23 11:17:58;;;;;;;;;;;;;;;4.72;37.35;99742.00;4433740;32;20044;-86
2022/01/23 11:20:35;;;;;;;;;;;;;;;4.68;37.59;99739.47;4411959;32;19996;-86
2022/01/23 11:23:10;;;;;;;;;;;;;;;4.52;37.65;99742.31;4431377;32;19992;-86
2022/01/23 11:25:36;;;;;;;;;;;;;;;4.48;38.20;99738.03;4419898;32;20039;-89
2022/01/23 11:28:04;;;;;;;;;;;;;;;4.32;38.79;99741.72;4485597;31;20271;-94
2022/01/23 11:30:40;;;;;;;;;;;;;;;4.49;38.31;99731.06;4489026;31;20001;-87
2022/01/23 11:33:06;;;;;;;;;;;;;;;4.71;37.71;99728.97;4503078;31;20000;-87
2022/01/23 11:35:32;;;;;;;;;;;;;;;4.28;38.29;99738.28;4488289;31;20277;-87
2022/01/23 11:37:57;;;;;;;;;;;;;;;4.02;39.12;99728.22;4503037;31;19988;-86
2022/01/23 11:53:45;;;;;;;;;;;;;;;4.25;38.98;99727.91;4494995;31;20565;-96
2022/01/23 11:54:03;;;;;;;;;;;;;;;4.22;39.28;99737.53;4485375;31;20057;-94
2022/01/23 11:56:41;;;;;;;;;;;;;;;3.88;39.08;99736.22;4491146;31;20384;-89
2022/01/23 11:59:22;;;;;;;;;;;;;;;3.78;39.75;99728.50;4505897;31;20409;-82
2022/01/23 12:01:48;;;;;;;;;;;;;;;3.68;40.18;99733.81;4490914;31;20002;-76
2022/01/23 12:06:45;;;;;;;;;;;;;;;3.34;42.21;99731.59;4491501;31;20569;-91
2022/01/23 12:09:16;;;;;;;;;;;;;;;3.68;41.07;99723.41;4475705;32;19972;-93
2022/01/23 12:12:02;;;;;;;;;;;;;;;3.19;41.82;99728.25;4491026;31;19964;-94
2022/01/23 12:17:07;;;;;;;;;;;;;;;3.32;41.66;99729.88;4449301;32;20011;-93
2022/01/23 12:19:44;;;;;;;;;;;;;;;3.29;41.86;99728.16;4453631;32;20072;-92
2022/01/23 12:22:25;;;;;;;;;;;;;;;3.00;42.53;99727.59;4445926;32;19973;-92
2022/01/23 12:24:52;;;;;;;;;;;;;;;3.13;42.60;99726.59;4451715;32;20071;-95
2022/01/23 12:27:23;;;;;;;;;;;;;;;3.09;42.53;99717.94;4450997;32;19959;-94
2022/01/23 12:29:49;;;;;;;;;;;;;;;3.20;41.85;99722.19;4443198;32;20418;-88
2022/01/23 12:32:26;;;;;;;;;;;;;;;3.24;41.47;99719.53;4450591;32;20008;-87
2022/01/23 12:34:58;;;;;;;;;;;;;;;3.00;42.08;99715.44;4431065;32;19985;-89
2022/01/23 12:37:26;;;;;;;;;;;;;;;3.35;41.48;99715.06;4444324;32;20005;-86
2022/01/23 12:40:10;;;;;;;;;;;;;;;3.33;41.68;99719.44;4449973;32;19992;-87
2022/01/23 12:42:54;;;;;;;;;;;;;;;3.06;42.40;99722.31;4430387;32;19984;-88
2022/01/23 12:45:38;;;;;;;;;;;;;;;3.38;42.12;99715.91;4432236;32;19992;-88
2022/01/23 12:48:22;;;;;;;;;;;;;;;3.28;42.11;99709.94;4425242;32;19973;-88
2022/01/23 12:50:47;;;;;;;;;;;;;;;3.11;42.37;99718.78;4454091;32;20004;-89
2022/01/23 12:53:13;;;;;;;;;;;;;;;3.21;42.31;99718.72;4477860;32;20005;-88
2022/01/23 12:55:41;;;;;;;;;;;;;;;3.01;42.82;99724.09;4486888;31;19995;-90
2022/01/23 12:58:10;;;;;;;;;;;;;;;3.01;42.89;99724.09;4485736;32;19998;-92
2022/01/23 13:00:35;;;;;;;;;;;;;;;2.94;43.17;99718.94;4486811;31;19984;-89
2022/01/23 13:03:03;;;;;;;;;;;;;;;2.97;43.35;99727.59;4469869;32;19988;-88
2022/01/23 13:05:29;;;;;;;;;;;;;;;3.30;42.36;99727.31;4472525;32;20327;-90
2022/01/23 13:10:38;;;;;;;;;;;;;;;3.28;42.56;99730.78;4472485;32;20035;-89
2022/01/23 13:13:22;;;;;;;;;;;;;;;3.29;42.19;99725.56;4484930;32;19979;-86
2022/01/23 13:16:24;;;;;;;;;;;;;;;3.41;42.26;99737.59;4486226;31;19991;-85
2022/01/23 13:19:20;;;;;;;;;;;;;;;3.32;42.30;99737.69;4474037;32;20025;-94
2022/01/23 13:30:18;;;;;;;;;;;;;;;3.14;42.58;99728.31;4434554;32;19980;-85
2022/01/23 13:32:47;;;;;;;;;;;;;;;3.04;42.68;99731.88;4426575;32;20052;-86
2022/01/23 13:35:15;;;;;;;;;;;;;;;3.37;42.11;99720.28;4424713;32;19996;-89
2022/01/23 13:59:24;;;;;;;13.93;3.60;;;;;;;2.83;45.03;99749.37;4506926;31;20154;-79
2022/01/23 14:02:08;;;;;;;11.98;4.00;;;;;;;2.78;44.00;99745.94;4509991;31;20126;-81
2022/01/23 14:04:39;;;;;;;13.85;3.70;;;;;;;3.27;43.18;99742.94;4498241;32;20537;-84
2022/01/23 14:07:06;;;;;;;11.80;3.53;;;;;;;3.32;42.42;99735.97;4496088;31;20084;-86
2022/01/23 14:09:46;;;;;;;11.98;3.75;;;;;;;3.28;41.88;99733.38;4489562;31;20167;-91
2022/01/23 14:12:14;;;;;;;12.50;3.80;;;;;;;3.56;41.32;99735.72;4511861;31;20151;-86
2022/01/23 14:14:51;;;;;;;15.05;3.80;;;;;;;3.67;41.05;99723.41;4503432;31;20108;-86
2022/01/23 14:17:18;;;;;;;14.77;3.70;;;;;;;3.63;40.93;99735.63;4505935;31;20110;-86
2022/01/23 14:20:04;;;;;;;12.77;3.60;;;;;;;3.63;41.24;99722.62;4509589;31;20104;-85
2022/01/23 14:22:32;;;;;;;12.23;4.00;;;;;;;3.62;41.03;99731.28;4474127;31;20104;-87
2022/01/23 14:25:16;;;;;;;11.43;3.45;;;;;;;3.51;41.15;99727.94;4497238;31;20114;-84
2022/01/23 14:28:03;;;;;;;10.20;3.40;;;;;;;3.52;41.20;99743.56;4509637;31;20135;-85
2022/01/23 14:30:30;;;;;;;13.98;3.60;;;;;;;3.68;40.75;99741.63;4498334;32;20123;-88
2022/01/23 14:33:04;;;;;;;12.23;3.70;;;;;;;3.62;41.18;99735.66;4498130;31;20084;-87
2022/01/23 14:35:31;;;;;;;11.48;3.70;;;;;;;3.28;41.70;99741.19;4494618;31;20087;-84
2022/01/23 14:38:15;;;;;;;13.05;3.78;;;;;;;3.18;41.90;99737.81;4497373;32;20522;-88
2022/01/23 14:40:53;;;;;;;13.70;4.20;;;;;;;3.21;41.98;99742.16;4483101;32;20143;-90
2022/01/23 14:43:19;;;;;;;12.75;3.37;;;;;;;3.03;42.73;99751.81;4483867;32;20460;-82
2022/01/23 14:45:49;;;;;;;12.00;3.75;;;;;;;3.33;42.43;99752.44;4487673;32;20088;-82
2022/01/23 14:48:17;;;;;;;10.90;3.58;;;;;;;3.32;42.41;99751.59;4510904;31;20707;-84
2022/01/23 14:50:48;;;;;;;12.93;3.70;;;;;;;3.30;42.39;99755.94;4470803;32;20168;-84
2022/01/23 14:53:18;;;;;;;11.32;3.55;;;;;;;3.38;42.36;99758.47;4498137;32;20459;-84
2022/01/23 14:55:52;;;;;;;11.45;3.83;;;;;;;3.33;42.57;99761.09;4498265;31;20154;-83
2022/01/23 14:58:20;;;;;;;11.35;3.42;;;;;;;3.10;43.22;99755.25;4494422;32;20103;-84
2022/01/23 15:00:46;;;;;;;9.80;3.50;;;;;;;2.98;43.44;99763.19;4487911;32;20452;-84
2022/01/23 15:03:14;;;;;;;10.27;3.17;;;;;;;2.94;43.57;99771.00;4487738;32;20122;-84
2022/01/23 15:05:41;;;;;;;11.95;3.50;;;;;;;3.02;43.74;99777.88;4487831;32;20123;-84
2022/01/23 15:08:09;;;;;;;15.55;4.05;;;;;;;3.03;43.74;99785.66;4473341;32;20088;-86
2022/01/23 15:10:39;;;;;;;13.62;3.80;;;;;;;3.06;43.86;99783.03;4487698;32;20110;-91
2022/01/23 15:13:06;;;;;;;9.70;3.22;;;;;;;3.12;43.85;99785.59;4488066;32;20096;-87
2022/01/23 15:15:32;;;;;;;12.30;3.75;;;;;;;3.01;44.06;99787.41;4460386;32;20118;-83
2022/01/23 15:17:57;;;;;;;12.05;3.70;;;;;;;3.10;43.85;99789.09;4487536;32;20088;-84
2022/01/23 15:20:23;;;;;;;11.63;3.95;;;;;;;3.04;43.93;99783.94;4487603;32;20135;-84
2022/01/23 15:22:48;;;;;;;9.93;3.20;;;;;;;3.02;44.07;99789.16;4460120;32;20452;-84
2022/01/23 15:25:16;;;;;;;11.02;3.62;;;;;;;2.91;44.29;99794.44;4487585;32;20088;-85
2022/01/23 15:27:42;;;;;;;10.20;3.13;;;;;;;3.01;44.20;99800.44;4473610;32;20132;-81
2022/01/23 15:30:10;;;;;;;13.70;3.70;;;;;;;2.86;44.54;99804.03;4487578;32;20158;-79
2022/01/23 15:32:36;;;;;;;12.52;3.92;;;;;;;2.59;45.29;99805.06;4458181;32;20096;-79
2022/01/23 15:35:04;;;;;;;12.43;3.78;;;;;;;2.66;45.06;99803.28;4472416;32;20119;-83
2022/01/23 15:37:29;;;;;;;12.40;3.53;;;;;;;2.48;45.55;99812.06;4487120;31;20147;-88
2022/01/23 15:39:55;;;;;;;11.70;3.25;;;;;;;2.53;45.48;99818.09;4486353;32;20170;-88
2022/01/23 15:42:21;;;;;;;9.18;3.10;;;;;;;2.65;45.15;99809.38;4487561;32;20145;-84
2022/01/23 15:44:46;;;;;;;11.68;3.72;;;;;;;2.53;45.17;99813.78;4488597;31;20100;-86
2022/01/23 15:47:12;;;;;;;10.88;3.37;;;;;;;2.45;45.27;99815.53;4473971;31;20124;-88
2022/01/23 15:49:37;;;;;;;35.30;15.13;;;;;;;2.32;45.56;99817.34;4487781;31;20456;-92
2022/01/23 15:52:04;;;;;;;9.85;3.08;;;;;;;2.58;46.15;99829.34;4474873;31;20112;-86
2022/01/23 15:54:30;;;;;;;12.10;3.35;;;;;;;2.43;45.37;99827.66;4474503;31;20103;-88
2022/01/23 15:56:56;;;;;;;11.75;3.55;;;;;;;2.42;45.47;99825.09;4475011;31;20114;-88
2022/01/23 15:59:22;;;;;;;12.20;3.20;;;;;;;2.31;45.69;99827.75;4487695;31;20108;-90
2022/01/23 16:01:49;;;;;;;12.40;3.37;;;;;;;1.96;46.53;99833.94;4474708;31;20130;-91
2022/01/23 16:04:20;;;;;;;10.20;3.03;;;;;;;2.07;46.33;99833.91;4475612;31;20447;-90
2022/01/23 16:06:45;;;;;;;12.02;3.50;;;;;;;2.30;45.90;99841.63;4488516;31;20493;-91
2022/01/23 16:09:12;;;;;;;10.23;2.72;;;;;;;2.30;45.70;99844.22;4488516;31;20135;-89
2022/01/23 16:11:38;;;;;;;14.02;3.30;;;;;;;2.31;45.68;99835.53;4502138;31;20131;-89